createdAt,value
2023-05-01T00:00:51.229Z,101336.91
2023-05-01T00:03:27.905Z,101344.05
2023-05-01T00:05:51.967Z,101341.86
2023-05-01T00:08:26.221Z,101339.06
2023-05-01T00:10:51.400Z,101332.27
2023-05-01T00:13:22.917Z,101326.25
2023-05-01T00:15:57.485Z,101328.14
2023-05-01T00:18:33.614Z,101329.21
2023-05-01T00:21:08.302Z,101325.10
2023-05-01T00:23:44.303Z,101324.36
2023-05-01T00:26:38.835Z,101321.23
2023-05-01T00:29:13.603Z,101322.54
2023-05-01T00:31:48.902Z,101327.79
2023-05-01T00:34:16.732Z,101327.61
2023-05-01T00:36:50.628Z,101328.34
2023-05-01T00:39:26.069Z,101330.35
2023-05-01T00:42:01.821Z,101325.56
2023-05-01T00:44:37.097Z,101320.91
2023-05-01T00:47:11.908Z,101324.95
2023-05-01T00:49:35.045Z,101318.11
2023-05-01T00:52:13.270Z,101316.02
2023-05-01T00:54:53.237Z,101323.70
2023-05-01T00:57:29.788Z,101327.95
2023-05-01T01:00:04.010Z,101324.66
2023-05-01T01:02:38.330Z,101322.48
2023-05-01T01:05:13.563Z,101322.21
2023-05-01T01:07:59.551Z,101324.08
2023-05-01T01:10:39.205Z,101317.04
2023-05-01T01:13:24.225Z,101318.95
2023-05-01T01:16:03.097Z,101319.77
2023-05-01T01:18:44.070Z,101312.59
2023-05-01T01:21:16.684Z,101317.59
2023-05-01T01:24:02.647Z,101312.27
2023-05-01T01:26:53.389Z,101313.31
2023-05-01T01:29:44.928Z,101312.29
2023-05-01T01:32:32.821Z,101308.64
2023-05-01T01:35:11.686Z,101312.00
2023-05-01T01:37:53.111Z,101314.72
2023-05-01T01:40:20.664Z,101312.98
2023-05-01T01:43:03.067Z,101310.33
2023-05-01T01:45:30.681Z,101310.71
2023-05-01T01:48:00.997Z,101312.87
2023-05-01T01:50:37.841Z,101314.22
2023-05-01T01:53:15.691Z,101303.59
2023-05-01T01:55:52.322Z,101299.06
2023-05-01T01:58:20.771Z,101297.30
2023-05-01T02:00:48.046Z,101294.38
2023-05-01T02:03:17.114Z,101289.99
2023-05-01T02:05:54.755Z,101288.55
2023-05-01T02:08:32.895Z,101288.39
2023-05-01T02:11:08.795Z,101289.56
2023-05-01T02:13:46.603Z,101285.42
2023-05-01T02:16:23.208Z,101286.07
2023-05-01T02:18:53.969Z,101286.97
2023-05-01T02:21:29.728Z,101287.98
2023-05-01T02:23:57.723Z,101285.93
2023-05-01T02:26:29.603Z,101284.20
2023-05-01T02:28:45.678Z,101286.77
2023-05-01T02:31:02.994Z,101283.33
2023-05-01T02:33:20.763Z,101280.67
2023-05-01T02:35:45.538Z,101279.99
2023-05-01T02:38:21.263Z,101279.38
2023-05-01T02:40:42.247Z,101277.52
2023-05-01T02:43:00.509Z,101277.36
2023-05-01T02:45:28.277Z,101271.20
2023-05-01T02:47:56.432Z,101269.56
2023-05-01T02:50:27.199Z,101266.15
2023-05-01T02:52:43.366Z,101269.11
2023-05-01T02:55:10.160Z,101270.01
2023-05-01T02:57:25.498Z,101267.77
2023-05-01T03:00:03.436Z,101263.40
2023-05-01T03:02:37.706Z,101256.07
2023-05-01T03:05:13.840Z,101253.83
2023-05-01T03:07:37.447Z,101252.48
2023-05-01T03:10:00.807Z,101251.69
2023-05-01T03:12:16.378Z,101254.23
2023-05-01T03:14:46.261Z,101251.73
2023-05-01T03:17:04.074Z,101255.44
2023-05-01T03:19:28.195Z,101257.65
2023-05-01T03:21:46.228Z,101260.38
2023-05-01T03:24:22.482Z,101259.13
2023-05-01T03:26:37.100Z,101261.32
2023-05-01T03:28:52.514Z,101257.23
2023-05-01T03:31:15.966Z,101261.66
2023-05-01T03:33:42.513Z,101258.52
2023-05-01T03:36:20.626Z,101257.52
2023-05-01T03:38:48.776Z,101255.55
2023-05-01T03:41:26.509Z,101262.20
2023-05-01T03:44:09.665Z,101258.46
2023-05-01T03:46:27.541Z,101257.24
2023-05-01T03:48:42.367Z,101258.05
2023-05-01T03:50:57.752Z,101254.27
2023-05-01T03:53:22.643Z,101252.98
2023-05-01T03:55:38.066Z,101253.58
2023-05-01T03:57:54.317Z,101255.65
2023-05-01T04:00:20.846Z,101254.38
2023-05-01T04:02:39.389Z,101260.27
2023-05-01T04:05:03.064Z,101257.44
2023-05-01T04:07:37.819Z,101266.08
2023-05-01T04:09:57.396Z,101266.20
2023-05-01T04:12:32.790Z,101268.67
2023-05-01T04:14:48.319Z,101269.80
2023-05-01T04:17:22.664Z,101271.63
2023-05-01T04:19:58.246Z,101273.73
2023-05-01T04:22:18.969Z,101268.43
2023-05-01T04:24:45.100Z,101264.39
2023-05-01T04:27:37.427Z,101264.34
2023-05-01T04:30:10.627Z,101269.56
2023-05-01T04:32:44.844Z,101270.80
2023-05-01T04:35:10.385Z,101269.25
2023-05-01T04:37:45.205Z,101271.84
2023-05-01T04:40:19.595Z,101268.09
2023-05-01T04:42:56.713Z,101267.30
2023-05-01T04:45:23.574Z,101264.38
2023-05-01T04:48:00.281Z,101263.71
2023-05-01T04:50:35.378Z,101266.57
2023-05-01T04:53:09.507Z,101270.67
2023-05-01T04:56:05.649Z,101274.42
2023-05-01T04:58:55.547Z,101273.77
2023-05-01T05:01:53.026Z,101275.67
2023-05-01T05:04:31.994Z,101282.34
2023-05-01T05:07:10.727Z,101282.31
2023-05-01T05:09:47.225Z,101284.09
2023-05-01T05:12:21.697Z,101283.05
2023-05-01T05:14:56.659Z,101278.02
2023-05-01T05:17:25.346Z,101277.64
2023-05-01T05:19:51.295Z,101274.93
2023-05-01T05:22:18.549Z,101269.41
2023-05-01T05:24:56.760Z,101270.82
2023-05-01T05:27:37.904Z,101276.70
2023-05-01T05:30:15.189Z,101270.73
2023-05-01T05:32:49.768Z,101269.69
2023-05-01T05:35:26.700Z,101270.04
2023-05-01T05:38:02.104Z,101268.48
2023-05-01T05:40:40.434Z,101271.91
2023-05-01T05:43:14.452Z,101269.98
2023-05-01T05:45:52.930Z,101270.58
2023-05-01T05:48:29.303Z,101266.18
2023-05-01T05:50:55.649Z,101267.10
2023-05-01T05:53:30.458Z,101261.22
2023-05-01T05:56:06.088Z,101261.01
2023-05-01T05:58:41.448Z,101256.70
2023-05-01T06:01:10.532Z,101258.04
2023-05-01T06:03:45.940Z,101260.19
2023-05-01T06:06:22.077Z,101258.58
2023-05-01T06:08:57.265Z,101253.11
2023-05-01T06:11:25.449Z,101253.17
2023-05-01T06:14:00.802Z,101251.48
2023-05-01T06:16:35.448Z,101247.06
2023-05-01T06:19:12.060Z,101242.44
2023-05-01T06:21:48.359Z,101241.45
2023-05-01T06:24:22.631Z,101238.29
2023-05-01T06:27:00.820Z,101233.89
2023-05-01T06:29:36.300Z,101240.01
2023-05-01T06:32:13.898Z,101235.80
2023-05-01T06:34:48.405Z,101235.78
2023-05-01T06:37:22.297Z,101236.98
2023-05-01T06:39:57.815Z,101233.23
2023-05-01T06:42:32.356Z,101233.04
2023-05-01T06:45:07.484Z,101236.30
2023-05-01T06:47:42.599Z,101235.63
2023-05-01T06:50:17.385Z,101237.24
2023-05-01T06:52:53.458Z,101234.19
2023-05-01T06:55:33.732Z,101233.34
2023-05-01T06:58:22.639Z,101232.98
2023-05-01T07:01:01.123Z,101232.23
2023-05-01T07:03:38.684Z,101231.29
2023-05-01T07:06:13.698Z,101226.61
2023-05-01T07:08:50.078Z,101226.67
2023-05-01T07:11:28.375Z,101227.21
2023-05-01T07:14:04.058Z,101228.83
2023-05-01T07:16:38.665Z,101226.61
2023-05-01T07:19:16.678Z,101227.76
2023-05-01T07:21:46.089Z,101225.88
2023-05-01T07:24:20.394Z,101226.41
2023-05-01T07:26:56.187Z,101232.77
2023-05-01T07:29:33.186Z,101226.98
2023-05-01T07:32:02.947Z,101227.01
2023-05-01T07:34:37.599Z,101226.53
2023-05-01T07:37:13.395Z,101222.17
2023-05-01T07:39:41.038Z,101222.86
2023-05-01T07:42:08.045Z,101222.23
2023-05-01T07:44:43.228Z,101220.75
2023-05-01T07:47:18.432Z,101221.63
2023-05-01T07:49:54.964Z,101220.35
2023-05-01T07:52:29.515Z,101216.51
2023-05-01T07:54:56.946Z,101215.70
2023-05-01T07:57:35.476Z,101215.90
2023-05-01T08:00:13.264Z,101219.48
2023-05-01T08:02:28.268Z,101220.70
2023-05-01T08:05:05.766Z,101220.27
2023-05-01T08:07:41.393Z,101216.55
2023-05-01T08:10:04.856Z,101211.95
2023-05-01T08:12:42.277Z,101211.14
2023-05-01T08:15:30.689Z,101208.94
2023-05-01T08:18:05.775Z,101200.15
2023-05-01T08:20:42.610Z,101199.80
2023-05-01T08:23:15.777Z,101192.73
2023-05-01T08:25:52.879Z,101190.38
2023-05-01T08:28:26.741Z,101187.23
2023-05-01T08:31:04.984Z,101188.98
2023-05-01T08:33:43.493Z,101185.20
2023-05-01T08:36:21.168Z,101186.70
2023-05-01T08:38:44.939Z,101184.40
2023-05-01T08:41:20.280Z,101180.49
2023-05-01T08:43:54.728Z,101176.48
2023-05-01T08:46:36.802Z,101172.96
2023-05-01T08:49:15.637Z,101170.89
2023-05-01T08:51:40.289Z,101170.69
2023-05-01T08:54:16.039Z,101170.92
2023-05-01T08:56:56.223Z,101170.43
2023-05-01T08:59:24.761Z,101169.08
2023-05-01T09:01:49.853Z,101168.75
2023-05-01T09:04:27.111Z,101165.34
2023-05-01T09:07:05.333Z,101161.65
2023-05-01T09:09:40.778Z,101160.10
2023-05-01T09:12:24.701Z,101154.70
2023-05-01T09:14:59.780Z,101154.48
2023-05-01T09:17:35.761Z,101153.83
2023-05-01T09:20:12.322Z,101154.77
2023-05-01T09:22:46.778Z,101150.13
2023-05-01T09:25:22.591Z,101145.29
2023-05-01T09:27:45.133Z,101145.34
2023-05-01T09:30:39.174Z,101144.06
2023-05-01T09:33:14.907Z,101139.64
2023-05-01T09:36:00.925Z,101138.15
2023-05-01T09:38:38.952Z,101136.70
2023-05-01T09:41:13.684Z,101135.58
2023-05-01T09:44:01.214Z,101130.88
2023-05-01T09:46:26.953Z,101128.20
2023-05-01T09:49:06.274Z,101131.00
2023-05-01T09:51:35.972Z,101129.99
2023-05-01T09:54:22.624Z,101126.99
2023-05-01T09:56:57.786Z,101126.67
2023-05-01T09:59:35.989Z,101124.22
2023-05-01T10:02:04.203Z,101127.02
2023-05-01T10:04:42.384Z,101127.20
2023-05-01T10:07:22.656Z,101127.36
2023-05-01T10:10:00.727Z,101128.76
2023-05-01T10:12:39.818Z,101126.98
2023-05-01T10:15:24.736Z,101128.84
2023-05-01T10:18:00.908Z,101127.03
2023-05-01T10:20:37.374Z,101122.73
2023-05-01T10:23:01.519Z,101118.20
2023-05-01T10:25:40.488Z,101119.45
2023-05-01T10:28:16.251Z,101121.41
2023-05-01T10:30:52.753Z,101119.70
2023-05-01T10:33:27.164Z,101117.25
2023-05-01T10:36:08.154Z,101120.67
2023-05-01T10:38:49.564Z,101117.23
2023-05-01T10:42:00.307Z,101119.13
2023-05-01T10:44:35.933Z,101118.99
2023-05-01T10:47:00.179Z,101122.48
2023-05-01T10:49:50.411Z,101123.52
2023-05-01T10:52:25.315Z,101116.25
2023-05-01T10:54:53.293Z,101115.95
2023-05-01T10:57:49.205Z,101119.48
2023-05-01T11:00:28.381Z,101116.61
2023-05-01T11:03:41.630Z,101118.86
2023-05-01T11:06:16.793Z,101124.18
2023-05-01T11:08:52.217Z,101122.62
2023-05-01T11:11:52.774Z,101120.58
2023-05-01T11:14:29.117Z,101124.23
2023-05-01T11:17:05.243Z,101124.05
2023-05-01T11:19:57.883Z,101119.57
2023-05-01T11:22:32.567Z,101120.88
2023-05-01T11:25:08.854Z,101121.31
2023-05-01T11:27:50.246Z,101119.73
2023-05-01T11:30:19.555Z,101119.83
2023-05-01T11:32:55.061Z,101116.61
2023-05-01T11:35:25.117Z,101115.70
2023-05-01T11:38:00.192Z,101116.66
2023-05-01T11:40:38.272Z,101118.05
2023-05-01T11:43:13.916Z,101117.11
2023-05-01T11:45:56.896Z,101113.48
2023-05-01T11:48:33.710Z,101113.61
2023-05-01T11:51:19.450Z,101109.10
2023-05-01T11:53:45.106Z,101103.83
2023-05-01T11:56:28.894Z,101106.15
2023-05-01T11:59:04.879Z,101103.98
2023-05-01T12:01:41.056Z,101106.20
2023-05-01T12:04:16.326Z,101103.41
2023-05-01T12:06:53.994Z,101098.85
2023-05-01T12:09:25.184Z,101099.69
2023-05-01T12:12:04.769Z,101098.77
2023-05-01T12:14:40.677Z,101100.90
2023-05-01T12:17:15.211Z,101100.52
2023-05-01T12:19:39.127Z,101102.23
2023-05-01T12:22:16.829Z,101101.05
2023-05-01T12:25:02.012Z,101105.84
2023-05-01T12:27:47.104Z,101101.39
2023-05-01T12:30:32.129Z,101100.08
2023-05-01T12:33:15.360Z,101104.19
2023-05-01T12:35:52.086Z,101105.31
2023-05-01T12:38:27.832Z,101105.48
2023-05-01T12:43:41.449Z,101100.02
2023-05-01T12:46:20.649Z,101101.55
2023-05-01T12:48:55.716Z,101100.97
2023-05-01T12:51:28.761Z,101100.48
2023-05-01T12:54:03.669Z,101100.92
2023-05-01T12:56:39.803Z,101098.25
2023-05-01T12:59:23.824Z,101102.56
2023-05-01T13:02:03.978Z,101104.71
2023-05-01T13:04:39.871Z,101106.83
2023-05-01T13:07:21.857Z,101102.23
2023-05-01T13:09:54.834Z,101103.20
2023-05-01T13:12:30.679Z,101097.13
2023-05-01T13:15:05.748Z,101098.41
2023-05-01T13:17:41.315Z,101102.73
2023-05-01T13:20:18.773Z,101101.17
2023-05-01T13:22:53.979Z,101099.90
2023-05-01T13:25:28.541Z,101098.55
2023-05-01T13:27:56.117Z,101096.17
2023-05-01T13:30:40.625Z,101096.58
2023-05-01T13:33:15.607Z,101096.63
2023-05-01T13:35:49.706Z,101095.92
2023-05-01T13:38:26.518Z,101096.27
2023-05-01T13:41:02.878Z,101094.86
2023-05-01T13:43:29.422Z,101096.45
2023-05-01T13:46:08.815Z,101095.23
2023-05-01T13:48:43.891Z,101096.31
2023-05-01T13:51:23.754Z,101096.66
2023-05-01T13:53:59.651Z,101093.52
2023-05-01T13:56:35.408Z,101094.04
2023-05-01T14:01:59.351Z,101097.65
2023-05-01T14:04:34.570Z,101098.04
2023-05-01T14:07:09.463Z,101095.09
2023-05-01T14:09:48.041Z,101101.67
2023-05-01T14:12:27.217Z,101099.21
2023-05-01T14:15:03.119Z,101094.67
2023-05-01T14:17:40.176Z,101098.09
2023-05-01T14:20:16.959Z,101095.20
2023-05-01T14:22:53.129Z,101092.83
2023-05-01T14:25:36.168Z,101089.57
2023-05-01T14:28:09.018Z,101089.64
2023-05-01T14:30:45.037Z,101089.85
2023-05-01T14:33:20.188Z,101087.56
2023-05-01T14:35:54.077Z,101086.09
2023-05-01T14:38:39.924Z,101090.94
2023-05-01T14:41:18.473Z,101093.77
2023-05-01T14:43:44.631Z,101097.04
2023-05-01T14:46:27.230Z,101099.18
2023-05-01T14:48:51.036Z,101095.73
2023-05-01T14:51:27.823Z,101095.42
2023-05-01T14:53:55.687Z,101092.27
2023-05-01T14:56:31.986Z,101096.64
2023-05-01T14:58:58.790Z,101097.36
2023-05-01T15:01:29.128Z,101094.98
2023-05-01T15:04:04.441Z,101090.59
2023-05-01T15:06:40.064Z,101090.16
2023-05-01T15:09:18.142Z,101090.31
2023-05-01T15:11:54.182Z,101086.79
2023-05-01T15:14:18.900Z,101088.71
2023-05-01T15:16:46.225Z,101089.78
2023-05-01T15:19:21.434Z,101089.50
2023-05-01T15:21:57.126Z,101089.45
2023-05-01T15:24:32.618Z,101087.36
2023-05-01T15:27:09.125Z,101089.55
2023-05-01T15:29:45.984Z,101092.77
2023-05-01T15:32:20.706Z,101091.13
2023-05-01T15:34:58.183Z,101089.59
2023-05-01T15:37:34.499Z,101087.30
2023-05-01T15:40:02.281Z,101085.84
2023-05-01T15:42:40.202Z,101086.90
2023-05-01T15:45:17.768Z,101085.73
2023-05-01T15:47:41.492Z,101085.40
2023-05-01T15:50:17.217Z,101085.98
2023-05-01T15:52:53.371Z,101083.14
2023-05-01T15:55:23.191Z,101079.70
2023-05-01T15:57:59.445Z,101080.37
2023-05-01T16:00:37.130Z,101073.14
2023-05-01T16:03:14.161Z,101072.43
2023-05-01T16:05:40.474Z,101074.91
2023-05-01T16:08:18.817Z,101073.80
2023-05-01T16:10:55.812Z,101071.40
2023-05-01T16:13:24.058Z,101070.44
2023-05-01T16:15:51.167Z,101074.98
2023-05-01T16:18:28.549Z,101073.37
2023-05-01T16:21:10.509Z,101071.86
2023-05-01T16:23:46.585Z,101072.20
2023-05-01T16:26:28.197Z,101075.16
2023-05-01T16:28:53.069Z,101073.92
2023-05-01T16:31:31.425Z,101073.90
2023-05-01T16:34:09.725Z,101072.11
2023-05-01T16:36:38.074Z,101075.70
2023-05-01T16:39:16.214Z,101074.71
2023-05-01T16:41:54.823Z,101077.60
2023-05-01T16:44:21.334Z,101074.23
2023-05-01T16:47:00.192Z,101074.11
2023-05-01T16:49:36.033Z,101077.28
2023-05-01T16:52:15.024Z,101078.83
2023-05-01T16:54:49.687Z,101080.91
2023-05-01T16:57:25.627Z,101083.00
2023-05-01T17:00:04.372Z,101080.35
2023-05-01T17:02:40.569Z,101085.59
2023-05-01T17:05:17.004Z,101085.42
2023-05-01T17:07:52.405Z,101086.95
2023-05-01T17:10:28.175Z,101086.20
2023-05-01T17:13:02.110Z,101083.45
2023-05-01T17:15:36.814Z,101083.22
2023-05-01T17:18:11.583Z,101083.45
2023-05-01T17:20:49.773Z,101081.94
2023-05-01T17:23:13.906Z,101081.27
2023-05-01T17:25:49.020Z,101085.08
2023-05-01T17:28:23.073Z,101079.43
2023-05-01T17:31:00.935Z,101079.00
2023-05-01T17:33:37.670Z,101078.39
2023-05-01T17:36:12.838Z,101072.43
2023-05-01T17:38:48.006Z,101074.23
2023-05-01T17:41:11.812Z,101073.39
2023-05-01T17:43:47.918Z,101074.67
2023-05-01T17:46:11.964Z,101070.66
2023-05-01T17:48:49.240Z,101069.58
2023-05-01T17:51:25.400Z,101068.16
2023-05-01T17:54:00.618Z,101072.24
2023-05-01T17:56:34.456Z,101073.63
2023-05-01T17:59:12.433Z,101074.83
2023-05-01T18:01:49.714Z,101074.80
2023-05-01T18:04:26.204Z,101080.89
2023-05-01T18:07:00.303Z,101074.40
2023-05-01T18:09:36.074Z,101068.71
2023-05-01T18:12:14.185Z,101070.33
2023-05-01T18:14:49.334Z,101069.64
2023-05-01T18:17:25.292Z,101071.71
2023-05-01T18:19:53.825Z,101069.86
2023-05-01T18:22:29.103Z,101070.95
2023-05-01T18:25:05.152Z,101066.98
2023-05-01T18:27:40.254Z,101064.89
2023-05-01T18:30:19.232Z,101060.82
2023-05-01T18:32:48.391Z,101064.57
2023-05-01T18:35:24.547Z,101068.70
2023-05-01T18:38:01.973Z,101069.77
2023-05-01T18:40:37.162Z,101070.76
2023-05-01T18:43:04.454Z,101069.74
2023-05-01T18:45:40.878Z,101067.41
2023-05-01T18:48:15.277Z,101064.81
2023-05-01T18:51:07.070Z,101070.85
2023-05-01T18:53:44.646Z,101062.48
2023-05-01T18:56:19.163Z,101058.80
2023-05-01T18:58:54.440Z,101052.55
2023-05-01T19:01:27.610Z,101056.40
2023-05-01T19:04:02.720Z,101055.91
2023-05-01T19:06:36.787Z,101050.37
2023-05-01T19:08:57.305Z,101053.33
2023-05-01T19:11:27.605Z,101055.25
2023-05-01T19:14:02.005Z,101055.33
2023-05-01T19:16:36.543Z,101055.92
2023-05-01T19:19:11.263Z,101049.77
2023-05-01T19:21:39.150Z,101050.25
2023-05-01T19:23:57.693Z,101040.44
2023-05-01T19:26:32.277Z,101038.81
2023-05-01T19:29:07.793Z,101034.39
2023-05-01T19:31:44.874Z,101035.96
2023-05-01T19:34:19.741Z,101038.20
2023-05-01T19:36:38.512Z,101037.78
2023-05-01T19:39:13.503Z,101033.09
2023-05-01T19:41:49.275Z,101032.98
2023-05-01T19:44:23.226Z,101031.70
2023-05-01T19:46:57.418Z,101032.76
2023-05-01T19:49:32.407Z,101031.77
2023-05-01T19:51:56.452Z,101031.94
2023-05-01T19:54:30.505Z,101028.33
2023-05-01T19:57:04.734Z,101023.68
2023-05-01T19:59:42.733Z,101019.52
2023-05-01T20:02:22.559Z,101020.54
2023-05-01T20:04:50.886Z,101016.74
2023-05-01T20:07:14.657Z,101015.77
2023-05-01T20:09:49.274Z,101013.70
2023-05-01T20:12:17.344Z,101009.17
2023-05-01T20:14:52.467Z,101006.55
2023-05-01T20:17:28.665Z,101010.98
2023-05-01T20:20:02.375Z,101009.15
2023-05-01T20:22:26.577Z,101012.23
2023-05-01T20:25:01.237Z,101015.23
2023-05-01T20:27:36.303Z,101014.71
2023-05-01T20:30:13.990Z,101005.11
2023-05-01T20:32:50.336Z,101006.98
2023-05-01T20:35:26.907Z,101009.77
2023-05-01T20:38:01.639Z,101009.04
2023-05-01T20:40:37.023Z,101001.77
2023-05-01T20:43:10.767Z,100999.48
2023-05-01T20:45:45.933Z,101004.27
2023-05-01T20:48:22.969Z,101002.10
2023-05-01T20:50:58.000Z,101003.66
2023-05-01T20:53:32.397Z,100998.84
2023-05-01T20:56:08.700Z,100996.55
2023-05-01T20:58:43.363Z,100994.69
2023-05-01T21:01:11.614Z,100998.19
2023-05-01T21:03:46.209Z,100996.61
2023-05-01T21:06:21.663Z,100994.58
2023-05-01T21:08:50.996Z,100993.86
2023-05-01T21:11:25.065Z,100990.73
2023-05-01T21:13:51.802Z,100994.61
2023-05-01T21:16:28.927Z,100994.40
2023-05-01T21:19:03.447Z,100994.48
2023-05-01T21:21:42.426Z,100989.63
2023-05-01T21:24:05.564Z,100991.08
2023-05-01T21:26:41.134Z,100994.77
2023-05-01T21:29:16.349Z,100993.23
2023-05-01T21:31:43.316Z,100988.60
2023-05-01T21:34:12.407Z,100989.10
2023-05-01T21:36:36.335Z,100986.55
2023-05-01T21:39:03.871Z,100986.58
2023-05-01T21:41:39.065Z,100993.65
2023-05-01T21:44:01.677Z,100994.30
2023-05-01T21:46:30.453Z,100998.02
2023-05-01T21:48:59.492Z,100992.89
2023-05-01T21:51:33.318Z,100990.14
2023-05-01T21:54:10.837Z,101001.92
2023-05-01T21:56:45.713Z,100995.36
2023-05-01T21:59:13.538Z,100994.19
2023-05-01T22:01:42.457Z,100999.50
2023-05-01T22:04:19.605Z,101002.84
2023-05-01T22:06:54.035Z,100999.41
2023-05-01T22:09:23.146Z,100999.21
2023-05-01T22:12:00.005Z,101002.54
2023-05-01T22:14:46.695Z,100998.73
2023-05-01T22:17:10.981Z,100992.25
2023-05-01T22:19:45.928Z,100991.15
2023-05-01T22:22:13.753Z,100996.20
2023-05-01T22:24:48.284Z,100995.45
2023-05-01T22:27:14.706Z,100998.56
2023-05-01T22:29:50.611Z,100993.14
2023-05-01T22:32:25.519Z,101002.73
2023-05-01T22:35:00.325Z,100997.97
2023-05-01T22:37:34.148Z,101004.30
2023-05-01T22:40:01.800Z,101002.61
2023-05-01T22:42:36.515Z,100997.73
2023-05-01T22:45:14.320Z,100997.13
2023-05-01T22:47:41.532Z,100999.98
2023-05-01T22:50:06.751Z,100994.98
2023-05-01T22:52:41.609Z,100997.54
2023-05-01T22:55:16.030Z,100993.80
2023-05-01T22:57:50.936Z,100990.71
2023-05-01T23:00:28.050Z,100989.64
2023-05-01T23:02:51.518Z,100979.52
2023-05-01T23:05:26.075Z,100981.56
2023-05-01T23:07:49.175Z,100986.48
2023-05-01T23:10:19.007Z,100987.28
2023-05-01T23:12:49.701Z,100987.70
2023-05-01T23:15:26.120Z,100986.19
2023-05-01T23:17:59.674Z,100977.82
2023-05-01T23:20:28.603Z,100970.04
2023-05-01T23:23:06.815Z,100959.42
2023-05-01T23:25:31.575Z,100959.69
2023-05-01T23:28:07.313Z,100955.27
2023-05-01T23:30:43.945Z,100950.73
2023-05-01T23:33:21.652Z,100950.16
2023-05-01T23:35:49.068Z,100949.52
2023-05-01T23:38:25.758Z,100952.06
2023-05-01T23:41:01.277Z,100952.21
2023-05-01T23:43:36.860Z,100951.80
2023-05-01T23:46:03.846Z,100944.45
2023-05-01T23:48:39.307Z,100940.92
2023-05-01T23:51:13.968Z,100938.23
2023-05-01T23:53:40.889Z,100943.04
2023-05-01T23:56:17.538Z,100950.85
2023-05-01T23:58:53.098Z,100950.97
